createdAt,value
2023-04-28T00:00:36.597Z,31.77
2023-04-28T00:01:39.349Z,23.30
2023-04-28T00:02:41.615Z,27.40
2023-04-28T00:03:44.726Z,23.95
2023-04-28T00:04:47.655Z,22.55
2023-04-28T00:05:50.656Z,21.98
2023-04-28T00:06:52.515Z,23.90
2023-04-28T00:07:56.609Z,25.35
2023-04-28T00:08:58.465Z,24.05
2023-04-28T00:10:01.214Z,23.05
2023-04-28T00:11:03.051Z,23.65
2023-04-28T00:12:06.636Z,22.95
2023-04-28T00:13:08.440Z,21.42
2023-04-28T00:14:11.177Z,21.55
2023-04-28T00:15:16.967Z,23.60
2023-04-28T00:16:19.797Z,22.20
2023-04-28T00:17:21.690Z,22.58
2023-04-28T00:18:24.500Z,24.52
2023-04-28T00:19:26.336Z,24.17
2023-04-28T00:20:29.096Z,23.63
2023-04-28T00:21:32.060Z,24.73
2023-04-28T00:22:35.026Z,25.33
2023-04-28T00:23:38.185Z,28.48
2023-04-28T00:24:41.850Z,26.20
2023-04-28T00:25:43.655Z,28.38
2023-04-28T00:26:46.385Z,28.13
2023-04-28T00:27:48.250Z,29.98
2023-04-28T00:28:51.096Z,28.33
2023-04-28T00:29:53.727Z,28.90
2023-04-28T00:30:56.489Z,25.65
2023-04-28T00:31:58.361Z,27.95
2023-04-28T00:33:01.232Z,26.20
2023-04-28T00:34:03.093Z,28.13
2023-04-28T00:35:06.999Z,27.10
2023-04-28T00:36:09.771Z,25.92
2023-04-28T00:37:12.895Z,27.20
2023-04-28T00:38:14.778Z,26.17
2023-04-28T00:39:19.388Z,31.23
2023-04-28T00:40:21.491Z,32.60
2023-04-28T00:41:24.419Z,47.35
2023-04-28T00:42:26.325Z,50.30
2023-04-28T00:43:29.072Z,53.33
2023-04-28T00:44:30.875Z,32.90
2023-04-28T00:45:33.844Z,35.33
2023-04-28T00:46:35.813Z,47.90
2023-04-28T00:47:39.071Z,50.78
2023-04-28T00:48:40.975Z,36.85
2023-04-28T00:49:43.745Z,33.35
2023-04-28T00:50:46.335Z,34.85
2023-04-28T00:51:49.060Z,30.83
2023-04-28T00:52:51.520Z,30.05
2023-04-28T00:53:54.340Z,30.52
2023-04-28T00:54:57.644Z,30.25
2023-04-28T00:56:01.107Z,32.47
2023-04-28T00:57:03.193Z,31.83
2023-04-28T00:58:06.334Z,32.75
2023-04-28T00:59:08.735Z,35.28
2023-04-28T01:00:12.372Z,30.80
2023-04-28T01:01:14.222Z,33.05
2023-04-28T01:02:18.378Z,31.50
2023-04-28T01:03:20.549Z,31.58
2023-04-28T01:04:24.115Z,31.85
2023-04-28T01:05:26.622Z,31.60
2023-04-28T01:06:30.848Z,33.08
2023-04-28T01:07:35.123Z,45.08
2023-04-28T01:08:40.105Z,40.63
2023-04-28T01:09:48.958Z,40.25
2023-04-28T01:10:56.750Z,42.13
2023-04-28T01:12:19.447Z,27.83
2023-04-28T01:13:27.354Z,29.58
2023-04-28T01:14:30.101Z,29.88
2023-04-28T01:15:32.073Z,29.52
2023-04-28T01:16:35.329Z,34.22
2023-04-28T01:17:37.936Z,32.72
2023-04-28T01:18:44.185Z,31.02
2023-04-28T01:19:46.090Z,30.42
2023-04-28T01:20:48.921Z,32.50
2023-04-28T01:21:51.014Z,31.38
2023-04-28T01:22:58.081Z,32.28
2023-04-28T01:24:01.678Z,30.63
2023-04-28T01:25:05.118Z,31.55
2023-04-28T01:26:07.452Z,30.25
2023-04-28T01:27:10.259Z,28.33
2023-04-28T01:28:13.744Z,26.75
2023-04-28T01:29:16.556Z,27.80
2023-04-28T01:30:18.666Z,25.90
2023-04-28T01:31:21.529Z,27.55
2023-04-28T01:32:23.473Z,26.85
2023-04-28T01:33:26.306Z,27.27
2023-04-28T01:34:28.051Z,27.25
2023-04-28T01:35:31.148Z,26.20
2023-04-28T01:36:35.305Z,27.55
2023-04-28T01:37:40.065Z,25.95
2023-04-28T01:38:41.968Z,27.00
2023-04-28T01:39:46.036Z,27.50
2023-04-28T01:40:47.819Z,25.73
2023-04-28T01:41:50.624Z,26.13
2023-04-28T01:42:52.620Z,25.27
2023-04-28T01:43:55.398Z,25.88
2023-04-28T01:44:57.249Z,25.02
2023-04-28T01:46:00.022Z,25.00
2023-04-28T01:47:01.863Z,26.33
2023-04-28T01:48:04.883Z,24.25
2023-04-28T01:49:06.740Z,26.40
2023-04-28T01:50:10.579Z,24.23
2023-04-28T01:51:12.338Z,26.25
2023-04-28T01:52:15.155Z,25.75
2023-04-28T01:53:20.586Z,24.75
2023-04-28T01:54:23.942Z,25.05
2023-04-28T01:55:27.294Z,24.70
2023-04-28T01:56:30.504Z,23.38
2023-04-28T01:57:35.415Z,25.60
2023-04-28T01:58:38.444Z,25.15
2023-04-28T01:59:41.364Z,24.25
2023-04-28T02:00:44.183Z,25.33
2023-04-28T02:01:46.309Z,25.45
2023-04-28T02:02:49.169Z,23.48
2023-04-28T02:03:52.092Z,23.52
2023-04-28T02:04:55.187Z,24.60
2023-04-28T02:05:57.144Z,26.00
2023-04-28T02:07:00.013Z,25.30
2023-04-28T02:08:01.983Z,26.63
2023-04-28T02:09:05.712Z,25.80
2023-04-28T02:10:10.132Z,25.45
2023-04-28T02:11:14.421Z,25.95
2023-04-28T02:12:17.417Z,24.55
2023-04-28T02:13:20.209Z,35.17
2023-04-28T02:14:22.078Z,33.08
2023-04-28T02:15:24.926Z,30.80
2023-04-28T02:16:28.498Z,32.47
2023-04-28T02:17:31.376Z,38.13
2023-04-28T02:18:33.209Z,34.90
2023-04-28T02:19:36.385Z,32.83
2023-04-28T02:20:38.548Z,30.92
2023-04-28T02:21:44.026Z,33.95
2023-04-28T02:22:45.850Z,33.63
2023-04-28T02:23:48.677Z,32.42
2023-04-28T02:24:50.693Z,32.75
2023-04-28T02:26:01.812Z,32.28
2023-04-28T02:27:05.665Z,31.92
2023-04-28T02:28:08.435Z,31.10
2023-04-28T02:29:10.260Z,30.50
2023-04-28T02:30:13.747Z,30.70
2023-04-28T02:31:15.611Z,29.10
2023-04-28T02:32:18.353Z,27.80
2023-04-28T02:33:20.160Z,27.77
2023-04-28T02:34:22.916Z,28.52
2023-04-28T02:35:24.767Z,28.38
2023-04-28T02:36:28.558Z,26.83
2023-04-28T02:37:30.447Z,27.63
2023-04-28T02:38:33.435Z,28.77
2023-04-28T02:39:35.531Z,27.90
2023-04-28T02:40:38.373Z,26.60
2023-04-28T02:41:40.166Z,27.92
2023-04-28T02:42:46.195Z,25.95
2023-04-28T02:43:48.028Z,26.55
2023-04-28T02:44:50.786Z,25.17
2023-04-28T02:45:52.902Z,26.38
2023-04-28T02:46:55.785Z,26.27
2023-04-28T02:48:03.513Z,25.63
2023-04-28T02:49:06.381Z,27.35
2023-04-28T02:50:09.378Z,26.27
2023-04-28T02:51:14.080Z,26.17
2023-04-28T02:52:16.303Z,26.73
2023-04-28T02:53:19.160Z,26.83
2023-04-28T02:54:27.481Z,27.05
2023-04-28T02:55:32.143Z,25.63
2023-04-28T02:56:35.445Z,26.02
2023-04-28T02:57:39.054Z,26.55
2023-04-28T02:58:42.351Z,25.23
2023-04-28T02:59:45.099Z,25.45
2023-04-28T03:00:47.248Z,24.98
2023-04-28T03:01:51.727Z,24.88
2023-04-28T03:02:53.717Z,24.48
2023-04-28T03:03:56.907Z,25.52
2023-04-28T03:04:59.026Z,25.15
2023-04-28T03:06:01.823Z,25.80
2023-04-28T03:07:03.668Z,26.08
2023-04-28T03:08:07.522Z,25.83
2023-04-28T03:09:09.986Z,24.50
2023-04-28T03:10:12.911Z,25.13
2023-04-28T03:11:14.863Z,26.02
2023-04-28T03:12:17.689Z,25.25
2023-04-28T03:13:21.600Z,25.73
2023-04-28T03:14:26.856Z,25.27
2023-04-28T03:15:29.722Z,23.48
2023-04-28T03:16:33.611Z,24.75
2023-04-28T03:17:36.635Z,25.48
2023-04-28T03:18:39.436Z,23.48
2023-04-28T03:19:41.318Z,23.60
2023-04-28T03:20:44.236Z,22.55
2023-04-28T03:21:46.237Z,23.00
2023-04-28T03:22:50.977Z,23.23
2023-04-28T03:23:53.622Z,22.38
2023-04-28T03:24:56.458Z,21.30
2023-04-28T03:25:58.688Z,21.38
2023-04-28T03:27:03.635Z,20.63
2023-04-28T03:28:05.859Z,21.92
2023-04-28T03:29:08.618Z,22.40
2023-04-28T03:30:12.644Z,25.08
2023-04-28T03:31:15.391Z,24.88
2023-04-28T03:32:17.317Z,24.27
2023-04-28T03:33:20.400Z,23.15
2023-04-28T03:34:22.506Z,24.95
2023-04-28T03:35:25.504Z,24.77
2023-04-28T03:36:28.661Z,21.60
2023-04-28T03:37:34.936Z,21.83
2023-04-28T03:38:37.840Z,22.35
2023-04-28T03:39:39.713Z,23.38
2023-04-28T03:40:42.682Z,22.25
2023-04-28T03:41:50.113Z,22.48
2023-04-28T03:43:25.026Z,22.15
2023-04-28T03:44:43.081Z,22.58
2023-04-28T03:45:47.483Z,22.55
2023-04-28T03:46:49.510Z,22.38
2023-04-28T03:47:52.510Z,22.80
2023-04-28T03:48:54.393Z,20.77
2023-04-28T03:49:58.854Z,22.52
2023-04-28T03:51:00.764Z,21.42
2023-04-28T03:52:04.368Z,21.85
2023-04-28T03:53:06.534Z,20.55
2023-04-28T03:54:09.648Z,22.13
2023-04-28T03:55:11.936Z,22.92
2023-04-28T03:56:14.786Z,23.92
2023-04-28T03:57:16.763Z,21.13
2023-04-28T03:58:19.701Z,28.55
2023-04-28T03:59:21.711Z,26.90
2023-04-28T04:00:25.719Z,30.55
2023-04-28T04:01:30.613Z,28.38
2023-04-28T04:02:33.543Z,28.67
2023-04-28T04:03:35.670Z,28.33
2023-04-28T04:04:38.779Z,30.17
2023-04-28T04:05:41.419Z,30.27
2023-04-28T04:06:44.301Z,30.20
2023-04-28T04:07:47.032Z,30.83
2023-04-28T04:08:49.868Z,29.15
2023-04-28T04:09:51.821Z,30.65
2023-04-28T04:10:55.854Z,29.15
2023-04-28T04:11:58.808Z,30.10
2023-04-28T04:13:01.783Z,29.05
2023-04-28T04:14:03.614Z,27.70
2023-04-28T04:15:07.820Z,28.15
2023-04-28T04:16:10.087Z,25.60
2023-04-28T04:17:14.274Z,27.95
2023-04-28T04:18:16.383Z,28.63
2023-04-28T04:19:39.509Z,26.27
2023-04-28T04:20:41.280Z,27.35
2023-04-28T04:21:44.086Z,29.42
2023-04-28T04:22:45.945Z,30.13
2023-04-28T04:23:49.853Z,27.63
2023-04-28T04:24:51.711Z,27.42
2023-04-28T04:25:54.494Z,27.15
2023-04-28T04:26:56.273Z,26.05
2023-04-28T04:28:09.594Z,24.20
2023-04-28T04:29:11.408Z,24.58
2023-04-28T04:30:14.523Z,24.27
2023-04-28T04:31:16.346Z,23.38
2023-04-28T04:32:20.861Z,23.33
2023-04-28T04:33:23.366Z,23.42
2023-04-28T04:34:26.280Z,23.25
2023-04-28T04:35:28.506Z,21.73
2023-04-28T04:36:31.571Z,22.42
2023-04-28T04:37:33.936Z,22.73
2023-04-28T04:38:38.286Z,21.30
2023-04-28T04:39:47.931Z,21.63
2023-04-28T04:40:51.644Z,22.95
2023-04-28T04:41:53.482Z,22.58
2023-04-28T04:43:25.415Z,21.77
2023-04-28T04:44:28.012Z,22.40
2023-04-28T04:45:31.925Z,22.25
2023-04-28T04:46:33.797Z,22.13
2023-04-28T04:47:38.015Z,22.67
2023-04-28T04:48:39.839Z,21.95
2023-04-28T04:49:43.015Z,22.70
2023-04-28T04:50:45.021Z,21.23
2023-04-28T04:51:48.261Z,21.55
2023-04-28T04:52:50.148Z,23.13
2023-04-28T04:53:53.897Z,22.45
2023-04-28T04:54:56.450Z,23.63
2023-04-28T04:56:00.539Z,23.85
2023-04-28T04:57:02.552Z,22.42
2023-04-28T04:58:37.830Z,23.33
2023-04-28T04:59:59.868Z,21.35
2023-04-28T05:01:03.332Z,19.10
2023-04-28T05:02:05.161Z,19.05
2023-04-28T05:03:09.893Z,18.33
2023-04-28T05:04:12.167Z,16.70
2023-04-28T05:05:21.476Z,16.17
2023-04-28T05:06:39.622Z,14.63
2023-04-28T05:07:41.518Z,13.63
2023-04-28T05:08:44.866Z,12.65
2023-04-28T05:09:47.075Z,13.73
2023-04-28T05:10:49.855Z,14.32
2023-04-28T05:11:52.069Z,12.63
2023-04-28T05:12:54.893Z,12.90
2023-04-28T05:13:56.671Z,14.85
2023-04-28T05:15:01.227Z,13.85
2023-04-28T05:16:03.610Z,13.55
2023-04-28T05:17:38.530Z,14.30
2023-04-28T05:18:42.185Z,12.75
2023-04-28T05:19:46.935Z,13.63
2023-04-28T05:20:49.736Z,13.60
2023-04-28T05:21:54.947Z,12.40
2023-04-28T05:22:58.363Z,12.63
2023-04-28T05:24:01.157Z,12.98
2023-04-28T05:25:07.210Z,12.27
2023-04-28T05:26:10.282Z,12.93
2023-04-28T05:27:12.080Z,14.27
2023-04-28T05:28:14.990Z,13.98
2023-04-28T05:29:18.466Z,13.07
2023-04-28T05:30:21.416Z,12.60
2023-04-28T05:31:23.819Z,12.90
2023-04-28T05:32:26.985Z,12.13
2023-04-28T05:33:28.802Z,12.68
2023-04-28T05:34:33.018Z,11.52
2023-04-28T05:35:35.968Z,12.60
2023-04-28T05:36:38.976Z,11.88
2023-04-28T05:37:45.083Z,11.95
2023-04-28T05:38:48.271Z,11.90
2023-04-28T05:39:50.090Z,10.65
2023-04-28T05:40:52.975Z,11.85
2023-04-28T05:41:54.787Z,12.10
2023-04-28T05:42:57.808Z,11.73
2023-04-28T05:43:59.685Z,11.75
2023-04-28T05:45:02.684Z,11.57
2023-04-28T05:46:09.732Z,11.05
2023-04-28T05:47:17.949Z,11.52
2023-04-28T05:48:20.069Z,11.20
2023-04-28T05:49:22.932Z,11.07
2023-04-28T05:50:26.057Z,11.02
2023-04-28T05:51:28.876Z,10.63
2023-04-28T05:52:31.199Z,11.60
2023-04-28T05:53:34.062Z,10.15
2023-04-28T05:54:35.898Z,10.95
2023-04-28T05:55:39.550Z,10.85
2023-04-28T05:56:41.336Z,10.93
2023-04-28T05:57:52.452Z,10.57
2023-04-28T05:58:55.998Z,10.18
2023-04-28T05:59:58.879Z,10.55
2023-04-28T06:01:00.714Z,10.98
2023-04-28T06:02:03.553Z,10.80
2023-04-28T06:03:05.614Z,9.48
2023-04-28T06:04:09.227Z,9.30
2023-04-28T06:05:11.663Z,11.07
2023-04-28T06:06:16.512Z,10.35
2023-04-28T06:07:18.371Z,9.00
2023-04-28T06:08:21.155Z,8.50
2023-04-28T06:09:23.010Z,8.13
2023-04-28T06:10:27.009Z,7.43
2023-04-28T06:11:28.947Z,8.35
2023-04-28T06:12:31.744Z,8.32
2023-04-28T06:13:33.519Z,8.30
2023-04-28T06:14:37.755Z,8.18
2023-04-28T06:15:39.680Z,8.27
2023-04-28T06:16:42.563Z,8.27
2023-04-28T06:17:44.457Z,7.90
2023-04-28T06:18:49.621Z,7.63
2023-04-28T06:19:54.335Z,7.65
2023-04-28T06:20:57.211Z,7.90
2023-04-28T06:22:00.373Z,8.30
2023-04-28T06:23:03.312Z,7.80
2023-04-28T06:24:05.646Z,7.32
2023-04-28T06:25:09.769Z,7.30
2023-04-28T06:26:19.358Z,7.68
2023-04-28T06:27:22.130Z,7.15
2023-04-28T06:28:24.587Z,8.18
2023-04-28T06:29:29.240Z,9.52
2023-04-28T06:30:31.425Z,9.43
2023-04-28T06:31:34.416Z,7.60
2023-04-28T06:32:36.271Z,8.45
2023-04-28T06:33:39.040Z,7.28
2023-04-28T06:34:42.245Z,7.45
2023-04-28T06:35:45.032Z,7.40
2023-04-28T06:36:47.319Z,5.78
2023-04-28T06:37:51.479Z,6.38
2023-04-28T06:38:53.262Z,6.18
2023-04-28T06:39:55.969Z,6.20
2023-04-28T06:40:57.805Z,6.65
2023-04-28T06:42:02.349Z,5.75
2023-04-28T06:43:05.685Z,5.70
2023-04-28T06:44:19.393Z,6.13
2023-04-28T06:45:21.670Z,5.28
2023-04-28T06:46:24.614Z,5.57
2023-04-28T06:47:26.701Z,5.72
2023-04-28T06:48:29.761Z,5.80
2023-04-28T06:49:31.537Z,6.15
2023-04-28T06:50:36.727Z,9.48
2023-04-28T06:51:41.363Z,6.70
2023-04-28T06:52:44.121Z,5.82
2023-04-28T06:53:47.316Z,5.88
2023-04-28T06:54:50.890Z,4.53
2023-04-28T06:55:53.011Z,5.82
2023-04-28T06:56:56.626Z,4.80
2023-04-28T06:57:59.685Z,14.40
2023-04-28T06:59:03.200Z,5.20
2023-04-28T07:00:06.475Z,5.38
2023-04-28T07:01:09.306Z,5.30
2023-04-28T07:02:11.403Z,5.60
2023-04-28T07:03:14.404Z,4.57
2023-04-28T07:04:16.796Z,4.70
2023-04-28T07:05:20.132Z,4.07
2023-04-28T07:06:23.046Z,5.22
2023-04-28T07:07:24.818Z,4.57
2023-04-28T07:08:29.801Z,4.73
2023-04-28T07:09:33.933Z,4.78
2023-04-28T07:10:36.851Z,5.05
2023-04-28T07:11:38.679Z,4.57
2023-04-28T07:12:41.439Z,4.60
2023-04-28T07:13:44.233Z,7.33
2023-04-28T07:14:46.512Z,4.57
2023-04-28T07:15:49.459Z,3.58
2023-04-28T07:16:51.225Z,4.10
2023-04-28T07:17:54.072Z,5.13
2023-04-28T07:18:56.298Z,4.07
2023-04-28T07:19:59.031Z,4.03
2023-04-28T07:21:03.402Z,4.07
2023-04-28T07:22:07.157Z,3.90
2023-04-28T07:23:10.165Z,3.50
2023-04-28T07:24:12.000Z,4.90
2023-04-28T07:25:16.321Z,4.27
2023-04-28T07:26:19.042Z,5.53
2023-04-28T07:27:20.822Z,4.40
2023-04-28T07:28:23.695Z,4.17
2023-04-28T07:29:28.821Z,3.77
2023-04-28T07:30:31.949Z,4.30
2023-04-28T07:31:33.837Z,3.63
2023-04-28T07:32:36.892Z,3.30
2023-04-28T07:33:39.624Z,3.93
2023-04-28T07:34:41.564Z,3.17
2023-04-28T07:35:44.387Z,4.23
2023-04-28T07:36:46.294Z,3.87
2023-04-28T07:37:49.243Z,4.00
2023-04-28T07:38:51.049Z,3.53
2023-04-28T07:39:53.881Z,3.80
2023-04-28T07:40:58.209Z,3.47
2023-04-28T07:41:59.982Z,3.90
2023-04-28T07:43:03.704Z,3.97
2023-04-28T07:44:08.149Z,3.90
2023-04-28T07:45:10.808Z,3.90
2023-04-28T07:46:13.767Z,3.70
2023-04-28T07:47:15.621Z,2.80
2023-04-28T07:48:18.500Z,3.30
2023-04-28T07:49:20.519Z,3.63
2023-04-28T07:50:23.492Z,3.27
2023-04-28T07:51:25.507Z,3.00
2023-04-28T07:52:28.521Z,4.07
2023-04-28T07:53:30.382Z,3.70
2023-04-28T07:54:35.108Z,3.70
2023-04-28T07:55:38.820Z,4.53
2023-04-28T07:56:42.992Z,3.47
2023-04-28T07:57:44.880Z,3.23
2023-04-28T07:58:47.982Z,3.63
2023-04-28T07:59:50.889Z,3.57
2023-04-28T08:00:52.783Z,3.60
2023-04-28T08:01:55.642Z,3.70
2023-04-28T08:02:57.877Z,3.33
2023-04-28T08:04:01.285Z,4.07
2023-04-28T08:05:04.112Z,4.13
2023-04-28T08:06:07.898Z,3.30
2023-04-28T08:07:12.515Z,2.73
2023-04-28T08:08:15.313Z,2.80
2023-04-28T08:09:18.085Z,3.20
2023-04-28T08:10:21.290Z,3.67
2023-04-28T08:11:23.201Z,3.40
2023-04-28T08:12:27.279Z,4.20
2023-04-28T08:13:30.741Z,3.60
2023-04-28T08:14:32.540Z,3.30
2023-04-28T08:15:35.353Z,3.57
2023-04-28T08:16:40.306Z,3.20
2023-04-28T08:17:43.181Z,6.40
2023-04-28T08:18:45.893Z,3.07
2023-04-28T08:19:48.977Z,3.37
2023-04-28T08:20:51.797Z,3.67
2023-04-28T08:21:53.558Z,3.78
2023-04-28T08:22:56.264Z,3.63
2023-04-28T08:23:58.112Z,3.80
2023-04-28T08:25:00.877Z,3.80
2023-04-28T08:26:03.635Z,5.37
2023-04-28T08:27:05.486Z,6.00
2023-04-28T08:28:10.072Z,3.83
2023-04-28T08:29:13.137Z,3.70
2023-04-28T08:30:16.250Z,4.33
2023-04-28T08:31:18.065Z,3.70
2023-04-28T08:32:20.859Z,3.50
2023-04-28T08:33:24.090Z,3.20
2023-04-28T08:34:27.552Z,3.03
2023-04-28T08:35:30.948Z,3.60
2023-04-28T08:36:33.762Z,5.27
2023-04-28T08:37:35.875Z,3.40
2023-04-28T08:38:38.696Z,4.10
2023-04-28T08:39:40.490Z,5.13
2023-04-28T08:40:43.673Z,4.77
2023-04-28T08:41:46.417Z,3.60
2023-04-28T08:42:49.510Z,3.60
2023-04-28T08:43:53.606Z,3.80
2023-04-28T08:44:59.486Z,3.53
2023-04-28T08:46:05.889Z,3.83
2023-04-28T08:47:13.387Z,2.93
2023-04-28T08:48:20.913Z,3.57
2023-04-28T08:49:24.788Z,3.60
2023-04-28T08:50:28.709Z,3.57
2023-04-28T08:51:35.285Z,3.10
2023-04-28T08:52:37.097Z,3.63
2023-04-28T08:54:06.202Z,3.23
2023-04-28T08:55:07.512Z,3.60
2023-04-28T08:56:10.771Z,3.30
2023-04-28T08:57:13.914Z,3.30
2023-04-28T08:58:15.721Z,3.07
2023-04-28T08:59:20.039Z,3.20
2023-04-28T09:00:21.828Z,4.60
2023-04-28T09:01:25.103Z,4.00
2023-04-28T09:02:27.205Z,3.43
2023-04-28T09:03:30.236Z,3.53
2023-04-28T09:04:32.311Z,3.43
2023-04-28T09:05:35.369Z,3.23
2023-04-28T09:06:38.390Z,4.40
2023-04-28T09:07:41.706Z,4.30
2023-04-28T09:08:43.754Z,3.23
2023-04-28T09:09:46.574Z,4.07
2023-04-28T09:10:48.528Z,3.27
2023-04-28T09:11:56.447Z,2.90
2023-04-28T09:12:59.254Z,3.47
2023-04-28T09:14:12.635Z,3.23
2023-04-28T09:15:29.502Z,3.70
2023-04-28T09:16:41.381Z,2.93
2023-04-28T09:17:51.049Z,4.37
2023-04-28T09:18:58.025Z,3.80
2023-04-28T09:20:00.133Z,3.73
2023-04-28T09:21:07.423Z,3.53
2023-04-28T09:22:24.974Z,3.27
2023-04-28T09:23:28.730Z,3.17
2023-04-28T09:24:32.002Z,3.10
2023-04-28T09:25:34.785Z,3.87
2023-04-28T09:26:50.609Z,3.57
2023-04-28T09:27:53.800Z,3.30
2023-04-28T09:29:11.678Z,3.23
2023-04-28T09:30:14.593Z,3.20
2023-04-28T09:31:25.945Z,3.17
2023-04-28T09:32:28.657Z,3.30
2023-04-28T09:33:31.759Z,3.33
2023-04-28T09:34:42.883Z,3.80
2023-04-28T09:35:47.758Z,3.40
2023-04-28T09:36:49.703Z,5.33
2023-04-28T09:37:59.503Z,3.73
2023-04-28T09:39:01.927Z,3.47
2023-04-28T09:40:07.628Z,3.63
2023-04-28T09:41:09.517Z,3.10
2023-04-28T09:42:12.447Z,3.43
2023-04-28T09:43:23.512Z,3.10
2023-04-28T09:44:26.751Z,2.90
2023-04-28T09:45:42.495Z,3.10
2023-04-28T09:46:47.473Z,3.10
2023-04-28T09:47:49.801Z,3.20
2023-04-28T09:49:01.995Z,3.03
2023-04-28T09:50:06.148Z,3.17
2023-04-28T09:51:11.614Z,3.20
2023-04-28T09:52:15.210Z,4.00
2023-04-28T09:53:18.810Z,5.17
2023-04-28T09:54:21.982Z,3.60
2023-04-28T09:55:25.604Z,3.20
2023-04-28T09:56:28.216Z,4.17
2023-04-28T09:57:32.448Z,3.37
2023-04-28T09:58:35.334Z,2.67
2023-04-28T09:59:38.607Z,3.27
2023-04-28T10:00:40.979Z,3.60
2023-04-28T10:01:46.576Z,3.53
2023-04-28T10:02:50.088Z,3.53
2023-04-28T10:03:54.401Z,5.10
2023-04-28T10:04:57.255Z,3.67
2023-04-28T10:06:00.683Z,3.40
2023-04-28T10:07:02.696Z,3.43
2023-04-28T10:08:06.350Z,3.93
2023-04-28T10:09:08.511Z,4.13
2023-04-28T10:10:14.698Z,3.20
2023-04-28T10:11:17.274Z,3.30
2023-04-28T10:12:21.328Z,3.10
2023-04-28T10:13:23.703Z,3.20
2023-04-28T10:14:26.671Z,3.13
2023-04-28T10:15:28.669Z,3.03
2023-04-28T10:16:33.148Z,2.90
2023-04-28T10:17:37.074Z,3.43
2023-04-28T10:18:40.411Z,3.07
2023-04-28T10:19:42.588Z,3.67
2023-04-28T10:20:47.447Z,2.97
2023-04-28T10:21:56.968Z,3.10
2023-04-28T10:23:09.279Z,3.20
2023-04-28T10:24:16.538Z,3.30
2023-04-28T10:25:26.504Z,3.00
2023-04-28T10:26:59.031Z,3.90
2023-04-28T10:28:04.773Z,3.23
2023-04-28T10:29:08.242Z,3.27
2023-04-28T10:30:23.086Z,3.47
2023-04-28T10:31:30.708Z,3.90
2023-04-28T10:32:33.392Z,3.50
2023-04-28T10:33:38.900Z,4.10
2023-04-28T10:34:40.913Z,3.47
2023-04-28T10:35:45.264Z,3.80
2023-04-28T10:36:48.226Z,3.50
2023-04-28T10:38:08.200Z,4.10
2023-04-28T10:39:12.847Z,3.50
2023-04-28T10:40:34.526Z,3.50
2023-04-28T10:41:37.743Z,3.80
2023-04-28T10:42:52.684Z,3.20
2023-04-28T10:43:56.091Z,3.60
2023-04-28T10:44:58.643Z,3.50
2023-04-28T10:46:06.407Z,3.93
2023-04-28T10:47:09.935Z,3.90
2023-04-28T10:48:13.044Z,5.47
2023-04-28T10:49:17.309Z,4.07
2023-04-28T10:50:21.956Z,3.00
2023-04-28T10:51:31.951Z,3.60
2023-04-28T10:52:51.368Z,3.90
2023-04-28T10:54:17.256Z,3.70
2023-04-28T10:55:36.411Z,3.70
2023-04-28T10:56:39.830Z,4.10
2023-04-28T10:57:44.369Z,4.20
2023-04-28T10:58:46.957Z,3.93
2023-04-28T10:59:51.340Z,3.23
2023-04-28T11:00:53.289Z,3.43
2023-04-28T11:01:56.351Z,4.10
2023-04-28T11:02:59.719Z,3.90
2023-04-28T11:04:08.415Z,3.90
2023-04-28T11:05:14.785Z,4.50
2023-04-28T11:06:21.489Z,4.53
2023-04-28T11:07:24.577Z,3.57
2023-04-28T11:08:36.684Z,3.73
2023-04-28T11:09:49.874Z,3.80
2023-04-28T11:11:18.394Z,4.07
2023-04-28T11:12:21.737Z,4.10
2023-04-28T11:13:27.501Z,3.20
2023-04-28T11:14:35.011Z,4.07
2023-04-28T11:15:37.759Z,3.80
2023-04-28T11:16:50.402Z,3.60
2023-04-28T11:17:57.731Z,8.80
2023-04-28T11:19:04.738Z,14.73
2023-04-28T11:20:09.516Z,9.67
2023-04-28T11:21:14.647Z,7.30
2023-04-28T11:22:18.861Z,4.83
2023-04-28T11:23:20.955Z,4.10
2023-04-28T11:24:25.556Z,3.57
2023-04-28T11:25:27.450Z,3.50
2023-04-28T11:26:30.531Z,3.57
2023-04-28T11:27:33.945Z,3.83
2023-04-28T11:28:38.038Z,3.60
2023-04-28T11:29:42.835Z,3.57
2023-04-28T11:30:44.629Z,4.20
2023-04-28T11:31:51.257Z,3.70
2023-04-28T11:32:53.210Z,3.57
2023-04-28T11:34:00.300Z,3.70
2023-04-28T11:35:04.300Z,3.70
2023-04-28T11:36:07.140Z,4.83
2023-04-28T11:37:16.681Z,4.37
2023-04-28T11:38:18.596Z,3.90
2023-04-28T11:39:28.479Z,5.07
2023-04-28T11:40:30.366Z,4.10
2023-04-28T11:41:34.328Z,4.70
2023-04-28T11:42:36.070Z,4.10
2023-04-28T11:43:46.879Z,4.23
2023-04-28T11:44:52.295Z,5.37
2023-04-28T11:45:54.295Z,5.47
2023-04-28T11:47:00.629Z,4.13
2023-04-28T11:48:21.027Z,3.90
2023-04-28T11:49:25.311Z,4.13
2023-04-28T11:50:35.883Z,3.97
2023-04-28T11:51:39.712Z,3.70
2023-04-28T11:52:53.189Z,3.53
2023-04-28T11:53:55.802Z,3.40
2023-04-28T11:55:00.797Z,3.20
2023-04-28T11:56:08.032Z,3.77
2023-04-28T11:57:18.211Z,3.83
2023-04-28T11:58:22.357Z,3.50
2023-04-28T11:59:26.978Z,4.20
2023-04-28T12:00:29.745Z,4.07
2023-04-28T12:01:34.044Z,3.73
2023-04-28T12:02:37.027Z,3.43
2023-04-28T12:03:45.819Z,3.60
2023-04-28T12:04:50.630Z,3.40
2023-04-28T12:05:52.601Z,3.43
2023-04-28T12:07:07.841Z,3.53
2023-04-28T12:08:11.316Z,3.13
2023-04-28T12:09:17.998Z,4.10
2023-04-28T12:10:21.903Z,3.27
2023-04-28T12:11:25.638Z,4.13
2023-04-28T12:13:39.034Z,3.70
2023-04-28T12:14:58.075Z,3.63
2023-04-28T12:16:03.655Z,3.73
2023-04-28T12:17:06.403Z,3.27
2023-04-28T12:18:10.645Z,4.03
2023-04-28T12:19:15.162Z,3.50
2023-04-28T12:20:35.757Z,3.20
2023-04-28T12:21:38.874Z,5.17
2023-04-28T12:22:45.837Z,3.80
2023-04-28T12:23:48.944Z,3.87
2023-04-28T12:25:07.990Z,3.93
2023-04-28T12:26:10.099Z,3.23
2023-04-28T12:27:21.588Z,4.10
2023-04-28T12:28:23.417Z,3.77
2023-04-28T12:29:43.078Z,3.40
2023-04-28T12:30:45.418Z,4.03
2023-04-28T12:31:52.692Z,3.87
2023-04-28T12:32:56.052Z,4.10
2023-04-28T12:33:58.994Z,3.80
2023-04-28T12:35:02.113Z,3.83
2023-04-28T12:36:04.630Z,4.43
2023-04-28T12:37:07.778Z,3.90
2023-04-28T12:38:13.904Z,3.83
2023-04-28T12:39:19.776Z,3.70
2023-04-28T12:40:22.945Z,3.43
2023-04-28T12:41:25.366Z,3.77
2023-04-28T12:42:29.224Z,3.60
2023-04-28T12:43:31.277Z,3.73
2023-04-28T12:44:36.519Z,3.47
2023-04-28T12:45:39.022Z,3.70
2023-04-28T12:46:42.032Z,5.77
2023-04-28T12:47:44.075Z,4.00
2023-04-28T12:48:46.919Z,3.77
2023-04-28T12:49:50.755Z,3.70
2023-04-28T12:50:53.554Z,3.97
2023-04-28T12:51:55.507Z,4.23
2023-04-28T12:52:58.571Z,3.57
2023-04-28T12:54:00.575Z,3.57
2023-04-28T12:55:05.013Z,3.47
2023-04-28T12:56:06.905Z,3.23
2023-04-28T12:57:09.659Z,3.73
2023-04-28T12:58:11.538Z,4.17
2023-04-28T12:59:14.269Z,3.43
2023-04-28T13:00:16.386Z,3.70
2023-04-28T13:01:19.258Z,3.10
2023-04-28T13:02:21.213Z,3.50
2023-04-28T13:03:24.159Z,3.70
2023-04-28T13:04:27.409Z,3.90
2023-04-28T13:05:29.923Z,3.53
2023-04-28T13:06:32.925Z,3.33
2023-04-28T13:07:35.810Z,3.70
2023-04-28T13:08:37.596Z,4.13
2023-04-28T13:09:41.316Z,3.90
2023-04-28T13:10:45.596Z,3.50
2023-04-28T13:11:48.334Z,3.10
2023-04-28T13:12:50.113Z,3.00
2023-04-28T13:13:53.271Z,3.73
2023-04-28T13:14:55.022Z,3.20
2023-04-28T13:15:57.762Z,3.30
2023-04-28T13:17:01.598Z,3.47
2023-04-28T13:18:03.617Z,3.30
2023-04-28T13:19:09.520Z,3.30
2023-04-28T13:20:11.955Z,3.10
2023-04-28T13:21:14.726Z,3.30
2023-04-28T13:22:16.716Z,2.97
2023-04-28T13:23:19.563Z,3.10
2023-04-28T13:24:22.430Z,3.20
2023-04-28T13:25:24.195Z,3.97
2023-04-28T13:26:28.351Z,3.47
2023-04-28T13:27:30.543Z,4.13
2023-04-28T13:28:33.308Z,3.53
2023-04-28T13:29:35.859Z,3.60
2023-04-28T13:30:38.570Z,6.30
2023-04-28T13:31:40.483Z,4.83
2023-04-28T13:32:43.263Z,3.73
2023-04-28T13:33:45.468Z,4.30
2023-04-28T13:34:48.437Z,3.60
2023-04-28T13:35:50.517Z,4.93
2023-04-28T13:36:54.352Z,3.53
2023-04-28T13:38:01.635Z,3.13
2023-04-28T13:39:06.237Z,3.50
2023-04-28T13:40:09.407Z,3.53
2023-04-28T13:41:12.102Z,3.60
2023-04-28T13:42:16.102Z,3.80
2023-04-28T13:43:18.842Z,3.10
2023-04-28T13:44:21.189Z,3.20
2023-04-28T13:45:24.039Z,3.60
2023-04-28T13:46:25.806Z,3.40
2023-04-28T13:47:28.986Z,3.40
2023-04-28T13:48:30.806Z,3.13
2023-04-28T13:49:33.580Z,3.30
2023-04-28T13:50:36.177Z,3.40
2023-04-28T13:51:40.076Z,3.70
2023-04-28T13:52:41.865Z,3.10
2023-04-28T13:53:44.585Z,3.57
2023-04-28T13:54:46.792Z,3.37
2023-04-28T13:55:51.609Z,3.50
2023-04-28T13:56:55.078Z,3.43
2023-04-28T13:58:02.598Z,3.80
2023-04-28T13:59:05.428Z,3.63
2023-04-28T14:00:09.564Z,3.17
2023-04-28T14:01:12.475Z,3.30
2023-04-28T14:02:14.257Z,3.40
2023-04-28T14:03:17.298Z,3.17